Time;durP1;ratioP1;P1;durP2;ratioP2;P2;SDS_P1;SDS_P2;PMS_P1;PMS_P2;Temp;Humidity;BMP_temperature;BMP_pressure;BME280_temperature;BME280_humidity;BME280_pressure;Samples;Min_cycle;Max_cycle;Signal;HPM_P1;HPM_P2
2023/02/03 00:00:51;;;;;;;22.30;12.63;;;8.80;99.90;;;;;;5031954;28;20030;-49
2023/02/03 00:03:17;;;;;;;20.27;12.77;;;8.80;99.90;;;;;;5031944;28;20035;-52
2023/02/03 00:05:43;;;;;;;22.67;13.13;;;8.70;99.90;;;;;;5032026;28;20405;-53
2023/02/03 00:08:09;;;;;;;23.40;13.03;;;8.80;99.90;;;;;;5031752;28;20033;-52
2023/02/03 00:10:37;;;;;;;20.63;12.70;;;8.80;99.90;;;;;;5031748;28;20117;-50
2023/02/03 00:13:03;;;;;;;25.73;14.13;;;8.80;99.90;;;;;;5031732;28;20025;-53
2023/02/03 00:15:29;;;;;;;25.40;13.50;;;8.70;99.90;;;;;;5030256;28;20386;-53
2023/02/03 00:17:54;;;;;;;24.40;13.60;;;8.70;99.90;;;;;;5031224;28;20116;-52
2023/02/03 00:20:20;;;;;;;23.30;13.00;;;8.80;99.90;;;;;;5031744;28;20030;-52
2023/02/03 00:22:46;;;;;;;24.87;12.60;;;8.80;99.90;;;;;;5031624;28;20271;-49
2023/02/03 00:25:12;;;;;;;27.77;14.37;;;8.80;99.90;;;;;;5031284;28;20068;-51
2023/02/03 00:27:37;;;;;;;22.27;13.37;;;8.80;99.90;;;;;;5031228;28;20037;-49
2023/02/03 00:30:04;;;;;;;21.63;11.77;;;8.80;99.90;;;;;;5030098;28;20037;-52
2023/02/03 00:32:29;;;;;;;25.07;13.07;;;8.80;99.90;;;;;;5031305;28;20044;-48
2023/02/03 00:34:55;;;;;;;21.77;13.23;;;8.80;99.90;;;;;;5029804;28;20029;-53
2023/02/03 00:37:22;;;;;;;18.57;12.53;;;8.80;99.90;;;;;;5030966;28;20042;-48
2023/02/03 00:39:48;;;;;;;22.10;13.07;;;8.80;99.90;;;;;;5031192;28;20083;-51
2023/02/03 00:42:14;;;;;;;25.13;12.57;;;8.80;99.90;;;;;;5031329;28;20071;-53
2023/02/03 00:44:40;;;;;;;21.30;13.27;;;8.80;99.90;;;;;;5030958;28;20033;-48
2023/02/03 00:47:06;;;;;;;28.37;13.17;;;8.80;99.90;;;;;;5030593;28;20107;-52
2023/02/03 00:49:32;;;;;;;20.30;14.20;;;8.80;99.90;;;;;;5030982;28;20493;-51
2023/02/03 00:51:58;;;;;;;22.60;13.43;;;8.80;99.90;;;;;;5031004;28;20497;-51
2023/02/03 00:54:23;;;;;;;25.07;12.63;;;8.80;99.90;;;;;;5030904;28;20029;-49
2023/02/03 00:56:49;;;;;;;24.03;14.00;;;8.80;99.90;;;;;;5030717;28;20053;-51
2023/02/03 00:59:15;;;;;;;23.90;12.13;;;8.80;99.90;;;;;;5029642;28;20032;-51
2023/02/03 01:01:40;;;;;;;30.23;13.13;;;8.80;99.90;;;;;;5030756;28;20052;-48
2023/02/03 01:04:06;;;;;;;21.37;12.60;;;8.80;99.90;;;;;;5030536;28;20417;-49
2023/02/03 01:06:32;;;;;;;25.07;12.50;;;8.90;99.90;;;;;;5030704;28;20490;-48
2023/02/03 01:09:01;;;;;;;20.03;12.07;;;8.80;99.90;;;;;;5030774;28;20052;-49
2023/02/03 01:11:27;;;;;;;20.87;12.73;;;8.80;99.90;;;;;;5030801;28;20034;-51
2023/02/03 01:13:55;;;;;;;22.23;12.23;;;8.80;99.90;;;;;;5030672;28;20029;-52
2023/02/03 01:16:23;;;;;;;24.05;12.32;;;8.80;99.90;;;;;;5030370;28;20433;-52
2023/02/03 01:18:50;;;;;;;19.93;11.97;;;8.80;99.90;;;;;;5029413;28;20068;-54
2023/02/03 01:21:19;;;;;;;21.83;11.83;;;8.70;99.90;;;;;;5030774;28;20043;-53
2023/02/03 01:23:45;;;;;;;20.05;11.23;;;8.80;99.90;;;;;;5030348;28;20021;-51
2023/02/03 01:26:14;;;;;;;26.23;12.60;;;8.80;99.90;;;;;;5030952;28;20096;-52
2023/02/03 01:28:40;;;;;;;20.13;10.88;;;8.80;99.90;;;;;;5030350;28;20525;-51
2023/02/03 01:31:18;;;;;;;18.50;10.90;;;8.80;99.90;;;;;;5030454;28;20109;-50
2023/02/03 01:33:48;;;;;;;27.23;11.97;;;8.80;99.90;;;;;;5030353;28;20393;-52
2023/02/03 01:36:15;;;;;;;20.30;11.40;;;8.80;99.90;;;;;;5030346;28;20033;-53
2023/02/03 01:38:41;;;;;;;18.90;10.63;;;8.80;99.90;;;;;;5030338;28;20048;-53
2023/02/03 01:41:12;;;;;;;19.67;11.47;;;8.80;99.90;;;;;;5029090;28;20116;-53
2023/02/03 01:43:44;;;;;;;19.87;11.50;;;8.80;99.90;;;;;;5028951;28;20449;-52
2023/02/03 01:46:36;;;;;;;27.73;10.93;;;8.80;99.90;;;;;;5028954;28;20148;-52
2023/02/03 01:49:13;;;;;;;20.77;10.50;;;8.80;99.90;;;;;;5031178;28;20041;-54
2023/02/03 01:51:41;;;;;;;23.17;10.77;;;8.80;99.90;;;;;;5034417;28;20037;-52
2023/02/03 01:54:11;;;;;;;18.10;10.10;;;8.80;99.90;;;;;;5032949;28;20450;-52
2023/02/03 01:56:41;;;;;;;17.10;9.90;;;8.80;99.90;;;;;;5034108;28;20048;-49
2023/02/03 01:59:07;;;;;;;20.43;10.00;;;8.90;99.90;;;;;;5032927;28;20025;-53
2023/02/03 02:01:33;;;;;;;20.17;10.10;;;8.90;99.90;;;;;;5032993;28;20460;-51
2023/02/03 02:04:01;;;;;;;21.97;10.47;;;8.90;99.90;;;;;;5032718;28;20026;-52
2023/02/03 02:06:27;;;;;;;19.53;9.80;;;8.90;99.90;;;;;;5034070;28;20390;-53
2023/02/03 02:08:54;;;;;;;20.40;10.40;;;8.90;99.90;;;;;;5032696;28;20033;-53
2023/02/03 02:11:20;;;;;;;17.40;9.63;;;8.90;99.90;;;;;;5032869;28;20356;-54
2023/02/03 02:13:48;;;;;;;21.00;10.73;;;8.90;99.90;;;;;;5033802;28;20478;-52
2023/02/03 02:16:28;;;;;;;18.20;9.70;;;8.90;99.90;;;;;;5033778;28;20040;-53
2023/02/03 02:19:23;;;;;;;18.60;9.20;;;8.90;99.90;;;;;;5033806;28;20061;-53
2023/02/03 02:22:11;;;;;;;17.17;9.30;;;8.90;99.90;;;;;;5033933;28;20517;-51
2023/02/03 02:25:03;;;;;;;18.43;9.07;;;8.90;99.90;;;;;;5023678;28;20029;-52
2023/02/03 02:28:07;;;;;;;17.07;9.17;;;8.90;99.90;;;;;;5032165;28;20052;-52
2023/02/03 02:30:50;;;;;;;20.43;9.37;;;9.00;99.90;;;;;;5033710;28;20055;-50
2023/02/03 02:33:32;;;;;;;20.17;9.27;;;9.00;99.90;;;;;;5032265;28;20029;-51
2023/02/03 02:36:13;;;;;;;17.83;8.53;;;9.00;99.90;;;;;;5032226;28;20101;-52
2023/02/03 02:38:58;;;;;;;16.57;8.80;;;9.00;99.90;;;;;;5033470;28;20029;-53
2023/02/03 02:41:36;;;;;;;21.47;9.43;;;9.00;99.90;;;;;;5033704;28;20025;-53
2023/02/03 02:44:02;;;;;;;16.13;7.67;;;8.90;99.90;;;;;;5031993;28;20026;-52
2023/02/03 02:46:53;;;;;;;15.93;7.33;;;9.00;99.90;;;;;;5032006;28;20052;-49
2023/02/03 02:49:36;;;;;;;12.93;6.50;;;8.90;99.90;;;;;;5032228;28;20060;-52
2023/02/03 02:52:04;;;;;;;14.00;7.23;;;8.90;99.90;;;;;;5032016;28;20037;-52
2023/02/03 02:54:32;;;;;;;14.40;7.00;;;8.90;99.90;;;;;;5033120;28;20052;-54
2023/02/03 02:57:02;;;;;;;12.10;5.70;;;8.90;99.90;;;;;;5031754;28;20037;-51
2023/02/03 02:59:29;;;;;;;13.80;6.60;;;8.90;99.90;;;;;;5031959;28;20033;-53
2023/02/03 03:01:55;;;;;;;15.90;6.67;;;8.90;99.90;;;;;;5030663;28;20494;-53
2023/02/03 03:04:25;;;;;;;15.53;6.27;;;8.90;99.90;;;;;;5031650;28;20117;-52
2023/02/03 03:06:57;;;;;;;12.57;6.07;;;8.90;99.90;;;;;;5031626;28;20033;-53
2023/02/03 03:09:35;;;;;;;15.83;6.03;;;8.90;99.90;;;;;;5033119;28;20029;-54
2023/02/03 03:12:10;;;;;;;13.97;5.87;;;8.80;99.90;;;;;;5031876;28;20034;-52
2023/02/03 03:14:40;;;;;;;11.83;5.70;;;8.80;99.90;;;;;;5032764;28;20030;-52
2023/02/03 03:17:09;;;;;;;15.10;5.87;;;8.80;99.90;;;;;;5031159;28;20029;-52
2023/02/03 03:19:38;;;;;;;14.52;5.47;;;8.80;99.90;;;;;;5031756;28;20061;-54
2023/02/03 03:22:08;;;;;;;9.77;5.43;;;8.90;99.90;;;;;;5032964;28;20033;-51
2023/02/03 03:24:51;;;;;;;13.15;5.60;;;8.80;99.90;;;;;;5032857;28;20029;-53
2023/02/03 03:27:27;;;;;;;15.70;5.70;;;8.80;99.90;;;;;;5032717;28;20044;-50
2023/02/03 03:30:07;;;;;;;14.80;5.47;;;8.80;99.90;;;;;;5032832;28;20029;-50
2023/02/03 03:32:33;;;;;;;11.77;5.57;;;8.80;99.90;;;;;;5033058;28;20033;-51
2023/02/03 03:35:01;;;;;;;11.20;5.50;;;8.80;99.90;;;;;;5033074;28;20041;-52
2023/02/03 03:37:34;;;;;;;10.97;5.13;;;8.80;99.90;;;;;;5032679;28;20087;-52
2023/02/03 03:40:21;;;;;;;13.00;5.40;;;8.90;99.90;;;;;;5032652;28;20447;-51
2023/02/03 03:43:05;;;;;;;14.43;5.60;;;8.80;99.90;;;;;;5032834;28;20041;-52
2023/02/03 03:45:44;;;;;;;10.17;4.73;;;8.90;99.90;;;;;;5032582;28;20044;-53
2023/02/03 03:48:13;;;;;;;13.63;5.00;;;8.90;99.90;;;;;;5032565;28;20037;-48
2023/02/03 03:50:57;;;;;;;14.63;5.93;;;8.90;99.90;;;;;;5032579;28;20037;-50
2023/02/03 03:53:26;;;;;;;11.17;4.63;;;8.90;99.90;;;;;;5032635;28;20482;-53
2023/02/03 03:55:53;;;;;;;11.68;4.78;;;8.90;99.90;;;;;;5032371;28;20104;-53
2023/02/03 03:58:24;;;;;;;11.57;5.20;;;8.90;99.90;;;;;;5032253;28;20379;-51
2023/02/03 04:00:54;;;;;;;12.53;5.03;;;8.90;99.90;;;;;;5032253;28;20461;-54
2023/02/03 04:03:24;;;;;;;13.47;5.33;;;8.90;99.90;;;;;;5032244;28;20061;-53
2023/02/03 04:05:49;;;;;;;;;;;8.90;99.90;;;;;;5032926;28;20029;-47
2023/02/03 04:08:15;;;;;;;10.67;4.33;;;8.90;99.90;;;;;;5032238;28;19935;-52
2023/02/03 04:10:42;;;;;;;9.10;4.50;;;8.80;99.90;;;;;;5032281;28;20029;-51
2023/02/03 04:13:09;;;;;;;17.67;4.83;;;8.90;99.90;;;;;;5031958;28;20547;-54
2023/02/03 04:15:35;;;;;;;13.77;5.13;;;8.90;99.90;;;;;;5031743;28;20087;-52
2023/02/03 04:18:01;;;;;;;12.53;4.90;;;8.90;99.90;;;;;;5032014;28;20060;-53
2023/02/03 04:20:28;;;;;;;11.20;4.87;;;8.90;99.90;;;;;;5031987;28;20033;-52
2023/02/03 04:22:54;;;;;;;14.07;4.77;;;8.90;99.90;;;;;;5032040;28;20397;-53
2023/02/03 04:25:20;;;;;;;13.47;4.73;;;8.90;99.90;;;;;;5031751;28;20091;-53
2023/02/03 04:27:46;;;;;;;12.73;5.27;;;8.90;99.90;;;;;;5031673;28;20025;-53
2023/02/03 04:30:12;;;;;;;10.10;4.67;;;8.90;99.90;;;;;;5031479;28;20511;-54
2023/02/03 04:32:37;;;;;;;13.33;5.20;;;8.90;99.90;;;;;;5031872;28;20116;-53
2023/02/03 04:35:05;;;;;;;14.00;4.23;;;8.90;99.90;;;;;;5031492;28;20156;-52
2023/02/03 04:37:31;;;;;;;10.37;4.40;;;8.90;99.90;;;;;;5031623;28;20029;-54
2023/02/03 04:39:57;;;;;;;11.80;4.70;;;8.90;99.90;;;;;;5031497;28;20498;-53
2023/02/03 04:42:23;;;;;;;11.73;5.27;;;8.90;99.90;;;;;;5031451;28;20033;-51
2023/02/03 04:44:49;;;;;;;9.10;4.17;;;8.90;99.90;;;;;;5031285;28;20489;-53
2023/02/03 04:47:15;;;;;;;14.03;4.50;;;8.90;99.90;;;;;;5031178;28;20057;-51
2023/02/03 04:49:41;;;;;;;9.10;4.07;;;9.00;99.90;;;;;;5031244;28;20119;-53
2023/02/03 04:52:07;;;;;;;10.90;4.70;;;9.00;99.90;;;;;;5031272;28;20113;-49
2023/02/03 04:54:33;;;;;;;11.97;4.40;;;8.90;99.90;;;;;;5031162;28;20036;-51
2023/02/03 04:56:59;;;;;;;13.13;5.00;;;9.00;99.90;;;;;;5030642;28;20457;-52
2023/02/03 04:59:25;;;;;;;13.33;4.40;;;9.00;99.90;;;;;;5030933;28;20025;-53
2023/02/03 05:01:51;;;;;;;9.07;3.83;;;9.00;99.90;;;;;;5031078;28;20017;-53
2023/02/03 05:04:17;;;;;;;10.23;3.97;;;9.00;99.90;;;;;;5031068;28;20390;-52
2023/02/03 05:06:43;;;;;;;12.30;3.90;;;9.00;99.90;;;;;;5030723;28;20033;-54
2023/02/03 05:09:09;;;;;;;13.87;3.97;;;8.90;99.90;;;;;;5030827;28;20040;-51
2023/02/03 05:11:34;;;;;;;10.27;3.57;;;9.00;99.90;;;;;;5030814;28;20461;-49
2023/02/03 05:14:00;;;;;;;10.80;4.30;;;8.90;99.90;;;;;;5030494;28;20113;-51
2023/02/03 05:16:26;;;;;;;8.80;3.57;;;8.90;99.90;;;;;;5030568;28;20095;-51
2023/02/03 05:18:52;;;;;;;8.33;3.60;;;8.90;99.90;;;;;;5030627;28;20031;-52
2023/02/03 05:21:17;;;;;;;9.27;3.87;;;8.90;99.90;;;;;;5030711;28;20022;-53
2023/02/03 05:23:43;;;;;;;11.83;3.03;;;8.90;99.90;;;;;;5029852;28;20688;-54
2023/02/03 05:26:09;;;;;;;10.17;3.40;;;8.90;99.90;;;;;;5030451;28;20030;-52
2023/02/03 05:28:34;;;;;;;10.60;3.43;;;8.90;99.90;;;;;;5030303;28;20079;-52
2023/02/03 05:31:01;;;;;;;9.47;3.10;;;8.90;99.90;;;;;;5030714;28;20152;-53
2023/02/03 05:33:27;;;;;;;9.23;3.17;;;8.90;99.90;;;;;;5030370;28;20026;-53
2023/02/03 05:35:54;;;;;;;11.87;3.37;;;8.90;99.90;;;;;;5030453;28;20025;-52
2023/02/03 05:38:20;;;;;;;9.53;3.20;;;8.90;99.90;;;;;;5030218;28;20026;-53
2023/02/03 05:43:35;;;;;;;7.22;2.60;;;8.90;99.90;;;;;;5030094;28;20030;-51
2023/02/03 05:46:05;;;;;;;9.30;3.20;;;9.00;99.90;;;;;;5030155;28;20037;-52
2023/02/03 05:48:31;;;;;;;9.93;2.97;;;8.90;99.90;;;;;;5029932;28;20036;-54
2023/02/03 05:50:57;;;;;;;7.53;2.67;;;8.90;99.90;;;;;;5028967;28;20030;-52
2023/02/03 05:53:23;;;;;;;10.23;2.97;;;8.90;99.90;;;;;;5029862;28;20406;-52
2023/02/03 05:55:49;;;;;;;10.23;3.13;;;8.90;99.90;;;;;;5030388;28;20029;-53
2023/02/03 05:58:15;;;;;;;10.67;2.63;;;9.00;99.90;;;;;;5029930;28;20037;-52
2023/02/03 06:00:40;;;;;;;8.40;2.90;;;8.90;99.90;;;;;;5030242;28;20498;-51
2023/02/03 06:03:06;;;;;;;8.03;3.00;;;8.90;99.90;;;;;;5030449;28;20029;-55
2023/02/03 06:05:33;;;;;;;8.03;2.73;;;8.90;99.90;;;;;;5029962;28;20457;-54
2023/02/03 06:08:00;;;;;;;9.40;3.47;;;8.90;99.90;;;;;;5029940;28;20123;-49
2023/02/03 06:10:26;;;;;;;11.43;2.77;;;8.90;99.90;;;;;;5030087;28;20044;-50
2023/02/03 06:12:52;;;;;;;8.27;2.57;;;9.00;99.90;;;;;;5030556;28;20037;-50
2023/02/03 06:15:18;;;;;;;7.37;2.30;;;9.10;99.90;;;;;;5029845;28;20544;-52
2023/02/03 06:17:45;;;;;;;10.67;2.90;;;9.00;99.90;;;;;;5029807;28;20087;-50
2023/02/03 06:20:12;;;;;;;8.97;2.87;;;9.00;99.90;;;;;;5029944;28;20025;-53
2023/02/03 06:22:38;;;;;;;7.77;2.90;;;9.00;99.90;;;;;;5029983;28;20399;-52
2023/02/03 06:25:04;;;;;;;10.50;2.53;;;9.00;99.90;;;;;;5029798;28;20112;-48
2023/02/03 06:27:30;;;;;;;9.50;2.63;;;9.00;99.90;;;;;;5029923;28;20448;-51
2023/02/03 06:29:56;;;;;;;8.47;2.40;;;9.00;99.90;;;;;;5028761;28;20034;-49
2023/02/03 06:32:21;;;;;;;6.37;2.53;;;9.10;99.90;;;;;;5030158;28;20033;-52
2023/02/03 06:34:47;;;;;;;7.10;2.20;;;9.10;99.90;;;;;;5030341;28;20546;-52
2023/02/03 06:37:13;;;;;;;10.23;2.87;;;9.10;99.90;;;;;;5033238;28;20029;-50
2023/02/03 06:39:39;;;;;;;8.07;2.40;;;9.20;99.90;;;;;;5033474;28;20026;-50
2023/02/03 06:42:05;;;;;;;8.40;2.33;;;9.10;99.90;;;;;;5033864;28;20129;-52
2023/02/03 06:44:31;;;;;;;10.67;2.43;;;9.20;99.90;;;;;;5033248;28;20037;-50
2023/02/03 06:46:57;;;;;;;7.90;2.20;;;9.20;99.90;;;;;;5033165;28;20045;-52
2023/02/03 06:49:23;;;;;;;8.13;2.30;;;9.20;99.90;;;;;;5033345;28;20040;-49
2023/02/03 06:51:49;;;;;;;8.30;2.87;;;9.10;99.90;;;;;;5033364;28;20037;-51
2023/02/03 06:54:15;;;;;;;8.27;2.60;;;9.10;99.90;;;;;;5033060;28;20068;-52
2023/02/03 06:56:40;;;;;;;10.33;2.50;;;9.10;99.90;;;;;;5032919;28;20033;-53
2023/02/03 06:59:07;;;;;;;6.40;2.43;;;9.10;99.90;;;;;;5033299;28;20026;-49
2023/02/03 07:01:33;;;;;;;11.03;2.93;;;9.10;99.90;;;;;;5033316;28;20025;-54
2023/02/03 07:03:59;;;;;;;12.97;3.13;;;9.10;99.90;;;;;;5032934;28;20101;-53
2023/02/03 07:06:28;;;;;;;7.47;2.60;;;9.10;99.90;;;;;;5032735;28;20041;-53
2023/02/03 07:08:57;;;;;;;10.35;3.03;;;9.20;99.90;;;;;;5033003;28;20152;-50
2023/02/03 07:11:23;;;;;;;11.68;2.97;;;9.20;99.90;;;;;;5032960;28;20386;-48
2023/02/03 07:13:49;;;;;;;11.10;2.70;;;9.20;99.90;;;;;;5032916;28;20049;-51
2023/02/03 07:16:15;;;;;;;10.17;2.67;;;9.20;99.90;;;;;;5032718;28;20099;-52
2023/02/03 07:18:41;;;;;;;9.07;2.40;;;9.20;99.90;;;;;;5032593;28;20041;-50
2023/02/03 07:21:07;;;;;;;11.83;3.30;;;9.20;99.90;;;;;;5032776;28;20029;-49
2023/02/03 07:23:32;;;;;;;12.87;4.50;;;9.20;99.90;;;;;;5032555;28;20033;-47
2023/02/03 07:26:03;;;;;;;11.67;4.20;;;9.20;99.90;;;;;;5032827;28;20516;-48
2023/02/03 07:28:30;;;;;;;10.00;3.10;;;9.30;99.90;;;;;;5032762;28;20044;-54
2023/02/03 07:30:56;;;;;;;5.80;2.60;;;9.30;99.90;;;;;;5032590;28;20409;-49
2023/02/03 07:33:22;;;;;;;12.63;2.77;;;9.20;99.90;;;;;;5032333;28;20041;-47
2023/02/03 07:35:56;;;;;;;8.40;2.43;;;9.30;99.90;;;;;;5032456;28;20037;-51
2023/02/03 07:38:23;;;;;;;8.60;3.00;;;9.30;99.90;;;;;;5032546;28;20030;-50
2023/02/03 07:40:48;;;;;;;8.87;2.30;;;9.20;99.90;;;;;;5032379;28;20494;-51
2023/02/03 07:43:14;;;;;;;7.53;2.80;;;9.30;99.90;;;;;;5032510;28;20036;-47
2023/02/03 07:45:41;;;;;;;6.67;2.17;;;9.20;99.90;;;;;;5031929;28;20432;-48
2023/02/03 07:48:06;;;;;;;10.03;3.07;;;9.20;99.90;;;;;;5031412;28;20041;-48
2023/02/03 07:50:32;;;;;;;7.53;2.40;;;9.20;99.90;;;;;;5032124;28;20179;-49
2023/02/03 07:52:59;;;;;;;9.27;2.93;;;9.20;99.90;;;;;;5032185;28;20037;-47
2023/02/03 07:55:25;;;;;;;9.67;2.67;;;9.20;99.90;;;;;;5031794;28;20037;-47
2023/02/03 07:57:57;;;;;;;10.30;3.23;;;9.30;99.90;;;;;;5032029;28;20034;-50
2023/02/03 08:00:24;;;;;;;11.93;3.00;;;9.20;99.90;;;;;;5031831;28;20033;-53
2023/02/03 08:02:50;;;;;;;6.40;2.43;;;9.30;99.90;;;;;;5032227;28;20113;-50
2023/02/03 08:05:17;;;;;;;8.67;2.40;;;9.30;99.90;;;;;;5031639;28;20021;-52
2023/02/03 08:07:43;;;;;;;7.53;2.37;;;9.30;99.90;;;;;;5031694;28;20401;-52
2023/02/03 08:10:12;;;;;;;6.57;2.70;;;9.20;99.90;;;;;;5031774;28;20079;-49
2023/02/03 08:12:38;;;;;;;9.02;2.75;;;9.20;99.90;;;;;;5031825;28;20022;-53
2023/02/03 08:15:05;;;;;;;8.17;2.70;;;9.30;99.90;;;;;;5031474;28;20049;-52
2023/02/03 08:17:32;;;;;;;9.80;2.50;;;9.30;99.90;;;;;;5031291;28;20025;-54
2023/02/03 08:19:58;;;;;;;8.47;2.53;;;9.20;99.90;;;;;;5031571;28;20033;-52
2023/02/03 08:22:24;;;;;;;10.37;2.60;;;9.30;99.90;;;;;;5031719;28;20037;-52
2023/02/03 08:24:50;;;;;;;7.53;2.50;;;9.40;99.90;;;;;;5031438;28;20029;-56
2023/02/03 08:27:19;;;;;;;7.67;2.50;;;9.30;99.90;;;;;;5031258;28;20112;-52
2023/02/03 08:29:45;;;;;;;9.27;3.00;;;9.30;99.90;;;;;;5031848;28;20405;-54
2023/02/03 08:32:14;;;;;;;7.03;2.57;;;9.30;99.90;;;;;;5031423;28;20033;-51
2023/02/03 08:34:40;;;;;;;8.25;2.72;;;9.30;99.90;;;;;;5031215;28;20033;-52
2023/02/03 08:37:07;;;;;;;7.20;2.60;;;9.40;99.90;;;;;;5030951;28;20030;-51
2023/02/03 08:39:34;;;;;;;6.97;2.57;;;9.40;99.90;;;;;;5031220;28;20017;-53
2023/02/03 08:42:00;;;;;;;11.70;2.83;;;9.30;99.90;;;;;;5031702;28;20494;-48
2023/02/03 08:44:26;;;;;;;6.97;2.60;;;9.30;99.90;;;;;;5031085;28;20033;-54
2023/02/03 08:46:53;;;;;;;8.07;2.50;;;9.30;99.90;;;;;;5030841;28;20045;-51
2023/02/03 08:49:19;;;;;;;7.47;2.57;;;9.40;99.90;;;;;;5031170;28;20084;-48
2023/02/03 08:51:46;;;;;;;7.97;2.80;;;9.40;99.90;;;;;;5031043;28;20040;-53
2023/02/03 08:54:13;;;;;;;8.10;2.77;;;9.30;99.90;;;;;;5030892;28;20037;-52
2023/02/03 08:56:39;;;;;;;9.90;2.70;;;9.30;99.90;;;;;;5030546;28;20033;-53
2023/02/03 08:59:06;;;;;;;8.43;3.10;;;9.30;99.90;;;;;;5030031;28;20120;-54
2023/02/03 09:01:31;;;;;;;7.63;2.90;;;9.30;99.90;;;;;;5030987;28;20036;-53
2023/02/03 09:03:57;;;;;;;8.60;2.43;;;9.40;99.90;;;;;;5029416;28;20029;-53
2023/02/03 09:06:23;;;;;;;6.87;2.70;;;9.30;99.90;;;;;;5030528;28;20041;-48
2023/02/03 09:08:49;;;;;;;8.87;2.70;;;9.30;99.90;;;;;;5030742;28;20056;-50
2023/02/03 09:11:17;;;;;;;8.20;2.87;;;9.40;99.90;;;;;;5030583;28;20045;-52
2023/02/03 09:13:44;;;;;;;9.77;2.70;;;9.30;99.90;;;;;;5030519;28;20458;-52
2023/02/03 09:16:12;;;;;;;10.57;3.17;;;9.30;99.90;;;;;;5030523;28;20040;-51
2023/02/03 09:18:38;;;;;;;6.87;3.20;;;9.40;99.90;;;;;;5030502;28;20433;-52
2023/02/03 09:21:07;;;;;;;11.17;3.00;;;9.40;99.90;;;;;;5030972;28;20473;-52
2023/02/03 09:23:33;;;;;;;9.05;3.03;;;9.40;99.90;;;;;;5030338;28;20083;-52
2023/02/03 09:26:08;;;;;;;10.20;2.97;;;9.30;99.90;;;;;;5030392;28;20029;-52
2023/02/03 09:28:34;;;;;;;9.30;3.00;;;9.30;99.90;;;;;;5030430;28;20036;-50
2023/02/03 09:31:02;;;;;;;7.70;3.40;;;9.30;99.90;;;;;;5030513;28;20486;-51
2023/02/03 09:33:28;;;;;;;7.33;2.70;;;9.20;99.90;;;;;;5030354;28;20038;-49
2023/02/03 09:35:54;;;;;;;6.93;3.00;;;9.30;99.90;;;;;;5030308;28;20025;-51
2023/02/03 09:38:20;;;;;;;9.63;3.27;;;9.30;99.90;;;;;;5030113;28;20537;-51
2023/02/03 09:40:51;;;;;;;9.40;2.90;;;9.30;99.90;;;;;;5030423;28;20112;-51
2023/02/03 09:43:20;;;;;;;15.40;3.40;;;9.30;99.90;;;;;;5030443;28;20037;-48
2023/02/03 09:48:26;;;;;;;7.43;3.07;;;9.30;99.90;;;;;;4988319;28;20053;-55
2023/02/03 09:50:53;;;;;;;8.17;3.03;;;9.30;99.90;;;;;;4991243;28;20038;-54
2023/02/03 09:53:36;;;;;;;9.30;3.20;;;9.30;99.90;;;;;;4990852;28;20027;-54
2023/02/03 09:56:02;;;;;;;10.10;3.00;;;9.30;99.90;;;;;;4993295;28;20089;-54
2023/02/03 09:58:32;;;;;;;7.27;2.90;;;9.30;99.90;;;;;;5010209;28;20430;-55
2023/02/03 10:01:08;;;;;;;7.47;2.83;;;9.40;99.90;;;;;;5010333;28;20454;-56
2023/02/03 10:04:11;;;;;;;8.57;2.87;;;9.40;99.90;;;;;;5010288;28;20045;-53
2023/02/03 10:06:44;;;;;;;8.20;2.77;;;9.40;99.90;;;;;;5006668;28;20046;-54
2023/02/03 10:09:33;;;;;;;11.70;3.50;;;9.40;99.90;;;;;;5010323;28;20053;-55
2023/02/03 10:12:18;;;;;;;8.30;3.25;;;9.40;99.90;;;;;;5014580;28;20437;-54
2023/02/03 10:15:02;;;;;;;9.47;3.43;;;9.40;99.90;;;;;;5014225;28;20042;-57
2023/02/03 10:17:36;;;;;;;7.50;3.20;;;9.40;99.90;;;;;;5013678;28;20390;-54
2023/02/03 10:20:08;;;;;;;13.27;3.50;;;9.50;99.90;;;;;;5014084;28;20041;-53
2023/02/03 10:22:43;;;;;;;8.00;3.03;;;9.50;99.90;;;;;;5014202;28;20038;-53
2023/02/03 10:25:15;;;;;;;10.30;2.80;;;9.60;99.90;;;;;;5013961;28;20036;-55
2023/02/03 10:27:42;;;;;;;9.63;3.40;;;9.60;99.90;;;;;;5013859;28;20037;-55
2023/02/03 10:30:22;;;;;;;10.07;3.37;;;9.60;99.90;;;;;;5013923;28;20483;-54
2023/02/03 10:32:56;;;;;;;11.20;2.93;;;9.50;99.90;;;;;;5013960;28;20030;-54
2023/02/03 10:35:36;;;;;;;8.90;3.33;;;9.60;99.90;;;;;;5013838;28;20383;-55
2023/02/03 10:38:04;;;;;;;13.70;2.90;;;9.60;99.90;;;;;;5013594;28;20033;-53
2023/02/03 10:40:30;;;;;;;9.23;2.60;;;9.70;99.90;;;;;;5013658;28;20402;-51
2023/02/03 10:45:40;;;;;;;9.17;3.00;;;9.70;99.90;;;;;;5013565;28;20104;-54
2023/02/03 10:48:13;;;;;;;7.73;2.47;;;9.80;99.90;;;;;;5013331;28;20065;-55
2023/02/03 10:50:46;;;;;;;8.40;3.00;;;9.80;99.90;;;;;;5013531;28;20033;-53
2023/02/03 10:53:25;;;;;;;35.17;18.17;;;9.80;99.90;;;;;;5013931;28;20034;-56
2023/02/03 10:56:03;;;;;;;11.35;3.58;;;9.80;99.90;;;;;;5013540;28;20037;-54
2023/02/03 10:58:30;;;;;;;10.87;3.13;;;9.80;99.90;;;;;;5013254;28;20069;-55
2023/02/03 11:01:04;;;;;;;9.80;4.00;;;9.90;99.90;;;;;;5013394;28;20037;-54
2023/02/03 11:03:30;;;;;;;10.90;3.57;;;9.90;99.90;;;;;;5013158;28;20474;-56
2023/02/03 11:06:09;;;;;;;8.67;3.00;;;9.90;99.90;;;;;;5013454;28;20084;-54
2023/02/03 11:08:38;;;;;;;10.40;3.30;;;9.90;99.90;;;;;;5013034;28;20129;-52
2023/02/03 11:11:27;;;;;;;12.77;3.20;;;9.90;99.90;;;;;;5013183;28;20383;-55
2023/02/03 11:14:02;;;;;;;11.97;3.30;;;10.00;99.90;;;;;;5012801;28;20053;-57
2023/02/03 11:16:30;;;;;;;10.40;3.57;;;9.90;99.90;;;;;;5012661;28;20034;-55
2023/02/03 11:19:01;;;;;;;10.67;3.93;;;9.90;99.90;;;;;;5012925;28;20054;-56
2023/02/03 11:21:42;;;;;;;9.33;3.00;;;9.90;99.90;;;;;;5011967;28;20030;-55
2023/02/03 11:24:18;;;;;;;10.40;3.87;;;10.00;99.90;;;;;;5012721;28;20100;-56
2023/02/03 11:26:57;;;;;;;9.03;3.13;;;9.90;99.90;;;;;;5012593;28;20122;-56
2023/02/03 11:29:29;;;;;;;13.05;3.65;;;9.90;99.90;;;;;;5012797;28;20025;-55
2023/02/03 11:32:00;;;;;;;11.17;3.67;;;9.90;99.90;;;;;;5012854;28;20037;-54
2023/02/03 11:34:37;;;;;;;13.43;3.50;;;10.00;99.90;;;;;;5012536;28;20030;-55
2023/02/03 11:37:39;;;;;;;11.23;3.17;;;10.00;99.90;;;;;;5012358;28;20037;-54
2023/02/03 11:40:09;;;;;;;15.43;4.00;;;10.00;99.90;;;;;;5009501;28;20038;-55
2023/02/03 11:42:37;;;;;;;12.50;3.80;;;10.00;99.90;;;;;;5012581;28;20113;-55
2023/02/03 11:45:23;;;;;;;15.87;4.27;;;9.90;99.90;;;;;;5012347;28;20030;-54
2023/02/03 11:47:54;;;;;;;16.83;3.93;;;9.90;99.90;;;;;;5012209;28;20430;-55
2023/02/03 11:50:30;;;;;;;10.40;3.83;;;9.90;99.90;;;;;;5012339;28;20512;-54
2023/02/03 11:53:34;;;;;;;16.60;3.60;;;9.90;99.90;;;;;;5012591;28;20117;-55
2023/02/03 11:56:37;;;;;;;12.07;4.03;;;10.00;99.90;;;;;;5012385;28;20049;-56
2023/02/03 11:59:16;;;;;;;13.37;4.07;;;10.10;99.90;;;;;;5012324;28;20040;-54
2023/02/03 12:02:09;;;;;;;8.87;3.53;;;10.00;99.90;;;;;;5012350;28;20033;-54
2023/02/03 12:04:54;;;;;;;16.77;3.80;;;10.00;99.90;;;;;;5012286;28;20045;-54
2023/02/03 12:07:43;;;;;;;10.27;4.17;;;10.00;99.90;;;;;;5012297;28;20540;-54
2023/02/03 12:10:53;;;;;;;13.33;3.80;;;9.90;99.90;;;;;;5012436;28;20038;-56
2023/02/03 12:13:39;;;;;;;13.40;3.50;;;9.90;99.90;;;;;;4981537;28;20034;-55
2023/02/03 12:16:21;;;;;;;22.03;6.13;;;9.90;99.90;;;;;;5012178;28;20061;-55
2023/02/03 12:19:14;;;;;;;13.23;4.47;;;10.00;99.90;;;;;;4994562;28;20034;-56
2023/02/03 12:21:51;;;;;;;10.93;3.90;;;10.00;99.90;;;;;;5012204;28;20024;-56
2023/02/03 12:24:53;;;;;;;9.17;3.67;;;10.00;99.90;;;;;;5011950;28;20438;-55
2023/02/03 12:27:19;;;;;;;12.37;4.53;;;10.00;99.90;;;;;;4987335;28;20046;-55
2023/02/03 12:30:12;;;;;;;15.70;4.80;;;10.00;99.90;;;;;;5011690;28;20044;-55
2023/02/03 12:32:55;;;;;;;14.33;3.80;;;10.10;99.90;;;;;;4974364;28;20045;-56
2023/02/03 12:35:55;;;;;;;12.93;4.10;;;10.00;99.90;;;;;;5011581;28;20043;-55
2023/02/03 12:38:52;;;;;;;13.37;4.27;;;10.00;99.90;;;;;;5011512;28;20034;-55
2023/02/03 12:41:25;;;;;;;14.20;5.07;;;10.10;99.90;;;;;;5011593;28;20391;-54
2023/02/03 12:43:56;;;;;;;12.97;4.37;;;10.10;99.90;;;;;;5011459;28;20493;-55
2023/02/03 12:46:40;;;;;;;13.90;4.30;;;10.20;99.90;;;;;;5011222;28;20371;-55
2023/02/03 12:49:08;;;;;;;15.67;4.37;;;10.20;99.90;;;;;;5011471;28;20117;-52
2023/02/03 12:51:54;;;;;;;16.73;4.33;;;10.20;99.90;;;;;;5011405;28;20113;-55
2023/02/03 12:55:03;;;;;;;17.60;4.30;;;10.10;99.90;;;;;;5011132;28;20029;-54
2023/02/03 12:57:43;;;;;;;14.23;4.38;;;10.10;99.90;;;;;;5006898;28;20049;-55
2023/02/03 13:00:10;;;;;;;13.37;4.53;;;10.10;99.90;;;;;;5011244;28;20033;-54
2023/02/03 13:03:04;;;;;;;16.70;4.47;;;10.10;99.90;;;;;;5011186;28;20022;-55
2023/02/03 13:06:03;;;;;;;15.00;4.93;;;10.10;99.90;;;;;;4996977;28;20042;-56
2023/02/03 13:08:42;;;;;;;10.57;3.45;;;10.10;99.90;;;;;;4977950;28;20068;-53
2023/02/03 13:11:40;;;;;;;12.83;4.20;;;10.30;99.90;;;;;;5011369;28;20174;-56
2023/02/03 13:14:17;;;;;;;9.60;4.63;;;10.20;99.90;;;;;;5010915;28;20502;-55
2023/02/03 13:16:48;;;;;;;13.43;4.60;;;10.20;99.90;;;;;;5010671;28;20037;-53